Time;durP1;ratioP1;P1;durP2;ratioP2;P2;SDS_P1;SDS_P2;PMS_P1;PMS_P2;Temp;Humidity;BMP_temperature;BMP_pressure;BME280_temperature;BME280_humidity;BME280_pressure;Samples;Min_cycle;Max_cycle;Signal;HPM_P1;HPM_P2
2023/02/21 02:15:35;;;;;;;39.00;13.95;;;;;;;;;;4970515;28;20049;-78
2023/02/21 02:18:20;;;;;;;37.53;14.85;;;;;;;;;;4981660;28;20111;-72
2023/02/21 02:21:08;;;;;;;32.35;14.07;;;;;;;;;;4983381;28;20089;-76
2023/02/21 02:24:08;;;;;;;31.50;13.55;;;;;;;;;;4930744;28;20058;-82
2023/02/21 02:26:50;;;;;;;33.67;12.95;;;;;;;;;;4969280;28;20069;-80
2023/02/21 02:29:27;;;;;;;39.20;14.80;;;;;;;;;;4980477;28;20139;-79
2023/02/21 02:32:15;;;;;;;34.88;13.38;;;;;;;;;;4968139;28;20054;-79
2023/02/21 02:34:53;;;;;;;33.45;14.18;;;;;;;;;;4978736;28;20057;-81
2023/02/21 02:37:23;;;;;;;36.97;14.10;;;;;;;;;;4936609;28;20133;-79
2023/02/21 02:39:56;;;;;;;38.70;14.95;;;;;;;;;;4933767;28;20108;-78
2023/02/21 02:42:30;;;;;;;33.95;13.75;;;;;;;;;;4966900;28;20056;-75
2023/02/21 02:45:00;;;;;;;35.30;14.18;;;;;;;;;;4978816;28;20133;-79
2023/02/21 02:47:29;;;;;;;35.50;14.20;;;;;;;;;;4974805;28;20459;-78
2023/02/21 02:49:58;;;;;;;34.70;13.90;;;;;;;;;;4874684;28;20043;-83
2023/02/21 02:52:25;;;;;;;36.80;13.73;;;;;;;;;;4889134;28;20117;-79
2023/02/21 02:54:59;;;;;;;36.65;13.90;;;;;;;;;;4967664;28;20049;-79
2023/02/21 02:57:26;;;;;;;34.97;13.45;;;;;;;;;;4885542;28;20115;-79
2023/02/21 02:59:53;;;;;;;35.00;13.98;;;;;;;;;;4953718;28;20104;-77
2023/02/21 03:05:27;;;;;;;39.80;14.40;;;;;;;;;;5056402;27;20382;-76
2023/02/21 03:07:58;;;;;;;35.33;13.45;;;;;;;;;;5057985;28;20046;-72
2023/02/21 03:10:31;;;;;;;34.00;12.95;;;;;;;;;;5016987;28;20057;-73
2023/02/21 03:13:03;;;;;;;36.38;15.02;;;;;;;;;;5035043;28;20054;-74
2023/02/21 03:15:33;;;;;;;32.45;13.25;;;;;;;;;;4989767;28;20044;-74
2023/02/21 03:18:03;;;;;;;36.35;13.93;;;;;;;;;;5015246;28;20037;-79
2023/02/21 03:20:33;;;;;;;33.67;13.32;;;;;;;;;;5062846;28;20056;-74
2023/02/21 03:23:01;;;;;;;32.92;13.13;;;;;;;;;;5006753;28;20106;-74
2023/02/21 03:25:29;;;;;;;29.63;12.55;;;;;;;;;;4932578;28;20053;-75
2023/02/21 03:27:56;;;;;;;41.80;13.05;;;;;;;;;;4995072;28;20052;-76
2023/02/21 03:30:23;;;;;;;32.92;13.48;;;;;;;;;;5004639;28;20061;-78
2023/02/21 03:32:51;;;;;;;31.80;13.23;;;;;;;;;;4966590;28;20068;-85
2023/02/21 03:35:19;;;;;;;31.83;11.73;;;;;;;;;;4944270;28;20119;-82
2023/02/21 03:37:48;;;;;;;34.35;12.65;;;;;;;;;;5036097;28;20073;-83
2023/02/21 03:40:16;;;;;;;31.75;12.70;;;;;;;;;;5047385;28;20056;-80
2023/02/21 03:42:43;;;;;;;32.23;12.10;;;;;;;;;;5035725;28;20051;-79
2023/02/21 03:45:10;;;;;;;31.60;12.25;;;;;;;;;;5009569;28;20056;-78
2023/02/21 03:47:36;;;;;;;35.60;12.95;;;;;;;;;;5007473;28;20059;-75
2023/02/21 03:50:03;;;;;;;32.17;12.63;;;;;;;;;;5026867;28;20071;-77
2023/02/21 03:52:30;;;;;;;29.10;11.80;;;;;;;;;;5015401;28;20051;-76
2023/02/21 04:00:31;;;;;;;30.13;11.85;;;;;;;;;;5070311;27;1513939;-73
2023/02/21 04:02:58;;;;;;;32.22;11.95;;;;;;;;;;5029821;28;20069;-78
2023/02/21 04:05:25;;;;;;;29.23;11.80;;;;;;;;;;5011968;28;20063;-76
2023/02/21 04:07:52;;;;;;;32.97;12.05;;;;;;;;;;5020089;28;20041;-76
2023/02/21 04:10:18;;;;;;;28.85;11.93;;;;;;;;;;5021855;28;20135;-80
2023/02/21 04:12:45;;;;;;;34.50;12.80;;;;;;;;;;5001453;28;20056;-75
2023/02/21 04:15:14;;;;;;;31.02;12.65;;;;;;;;;;4992938;28;20044;-80
2023/02/21 04:17:43;;;;;;;31.08;12.63;;;;;;;;;;5020190;28;20148;-79
2023/02/21 04:20:10;;;;;;;30.65;12.35;;;;;;;;;;5004055;28;20111;-74
2023/02/21 04:22:39;;;;;;;33.00;12.63;;;;;;;;;;5009059;28;20048;-72
2023/02/21 04:25:08;;;;;;;26.23;11.52;;;;;;;;;;5010095;28;20052;-77
2023/02/21 04:27:35;;;;;;;32.42;12.57;;;;;;;;;;4987532;28;20073;-71
2023/02/21 04:30:04;;;;;;;32.42;12.82;;;;;;;;;;5013508;28;20092;-79
2023/02/21 04:32:31;;;;;;;29.00;12.02;;;;;;;;;;5020440;28;20135;-77
2023/02/21 04:34:59;;;;;;;31.50;11.30;;;;;;;;;;4951258;28;20121;-79
2023/02/21 04:37:26;;;;;;;32.08;13.10;;;;;;;;;;5019204;28;20057;-72
2023/02/21 04:39:53;;;;;;;36.42;12.65;;;;;;;;;;5017986;28;20044;-79
2023/02/21 04:42:20;;;;;;;30.35;12.10;;;;;;;;;;5028221;28;20045;-75
2023/02/21 04:44:46;;;;;;;36.15;13.20;;;;;;;;;;4999168;28;20076;-78
2023/02/21 04:47:13;;;;;;;28.92;11.43;;;;;;;;;;5011149;28;20492;-70
2023/02/21 04:49:40;;;;;;;34.63;12.38;;;;;;;;;;5007251;28;20106;-78
2023/02/21 04:52:08;;;;;;;36.95;12.80;;;;;;;;;;5011849;28;20053;-76
2023/02/21 04:54:35;;;;;;;32.20;13.40;;;;;;;;;;4971168;28;20052;-74
2023/02/21 04:59:27;;;;;;;32.25;13.02;;;;;;;;;;4948316;28;20180;-78
2023/02/21 05:01:54;;;;;;;38.65;13.18;;;;;;;;;;5003350;28;20065;-73
2023/02/21 05:04:21;;;;;;;31.70;13.05;;;;;;;;;;4950771;28;20189;-76
2023/02/21 05:06:47;;;;;;;31.48;12.57;;;;;;;;;;4971964;28;20069;-77
2023/02/21 05:09:19;;;;;;;31.10;12.45;;;;;;;;;;5026641;28;20074;-72
2023/02/21 05:11:46;;;;;;;31.08;12.18;;;;;;;;;;4992044;28;20048;-72
2023/02/21 05:16:38;;;;;;;33.47;12.48;;;;;;;;;;4971273;28;20041;-79
2023/02/21 05:19:05;;;;;;;31.60;13.02;;;;;;;;;;5017845;28;20099;-72
2023/02/21 05:21:34;;;;;;;33.22;13.77;;;;;;;;;;5000169;28;20211;-75
2023/02/21 05:24:01;;;;;;;34.38;12.30;;;;;;;;;;4968314;28;20053;-79
2023/02/21 05:26:33;;;;;;;32.55;12.70;;;;;;;;;;4955554;28;20060;-75
2023/02/21 05:29:01;;;;;;;33.05;13.15;;;;;;;;;;5024587;28;20040;-75
2023/02/21 05:31:28;;;;;;;38.03;13.55;;;;;;;;;;5018070;28;20052;-76
2023/02/21 05:33:55;;;;;;;35.25;13.50;;;;;;;;;;5002655;28;20279;-76
2023/02/21 05:36:23;;;;;;;36.30;13.65;;;;;;;;;;4989360;28;20124;-75
2023/02/21 05:38:50;;;;;;;33.38;13.57;;;;;;;;;;5011446;28;20060;-78
2023/02/21 05:41:18;;;;;;;34.65;13.60;;;;;;;;;;4997710;28;20080;-77
2023/02/21 05:43:47;;;;;;;34.97;13.47;;;;;;;;;;4984743;28;20111;-77
2023/02/21 05:46:21;;;;;;;38.75;12.82;;;;;;;;;;5012084;28;20342;-75
2023/02/21 05:48:48;;;;;;;36.00;12.70;;;;;;;;;;4983283;28;20052;-72
2023/02/21 05:51:15;;;;;;;28.30;11.88;;;;;;;;;;5005418;28;20052;-77
2023/02/21 05:53:42;;;;;;;34.47;13.75;;;;;;;;;;4998263;28;20059;-71
2023/02/21 05:56:09;;;;;;;32.33;13.65;;;;;;;;;;4971042;28;20057;-80
2023/02/21 05:58:39;;;;;;;35.38;12.35;;;;;;;;;;5004322;28;20140;-75
2023/02/21 06:01:07;;;;;;;36.38;12.18;;;;;;;;;;5036391;28;20057;-77
2023/02/21 06:03:34;;;;;;;33.88;13.23;;;;;;;;;;5003639;28;20053;-81
2023/02/21 06:06:04;;;;;;;38.17;13.50;;;;;;;;;;4976347;28;20056;-79
2023/02/21 06:08:30;;;;;;;36.67;14.60;;;;;;;;;;5021622;28;20055;-73
2023/02/21 06:10:57;;;;;;;33.55;12.82;;;;;;;;;;5039880;28;20052;-76
2023/02/21 06:13:26;;;;;;;36.38;13.70;;;;;;;;;;5006429;28;20048;-78
2023/02/21 06:18:20;;;;;;;37.15;13.15;;;;;;;;;;4903649;28;20068;-81
2023/02/21 06:20:46;;;;;;;28.58;12.07;;;;;;;;;;4989463;28;20087;-76
2023/02/21 06:23:13;;;;;;;33.22;12.07;;;;;;;;;;5032684;28;20113;-79
2023/02/21 06:25:43;;;;;;;38.88;13.57;;;;;;;;;;5020348;28;20066;-78
2023/02/21 06:28:14;;;;;;;39.53;13.98;;;;;;;;;;5011400;28;20057;-70
2023/02/21 06:30:41;;;;;;;33.55;13.60;;;;;;;;;;4981367;28;20114;-73
2023/02/21 06:33:08;;;;;;;36.80;14.57;;;;;;;;;;4997826;28;20056;-79
2023/02/21 06:35:42;;;;;;;34.70;13.07;;;;;;;;;;5003052;28;20052;-78
2023/02/21 06:38:11;;;;;;;34.95;13.07;;;;;;;;;;5055541;28;20080;-81
2023/02/21 06:40:51;;;;;;;40.78;14.75;;;;;;;;;;5002821;28;20052;-82
2023/02/21 06:43:22;;;;;;;35.45;13.55;;;;;;;;;;4971808;28;20042;-74
2023/02/21 06:59:04;;;;;;;30.05;11.27;;;;;;;;;;5047690;27;20175;-76
2023/02/21 07:01:36;;;;;;;39.38;13.95;;;;;;;;;;4960713;28;20103;-79
2023/02/21 07:04:06;;;;;;;36.05;13.63;;;;;;;;;;4987684;28;20054;-79
2023/02/21 07:06:33;;;;;;;37.75;12.88;;;;;;;;;;4887123;28;20062;-73
2023/02/21 07:09:00;;;;;;;39.40;14.30;;;;;;;;;;4936317;28;20067;-77
2023/02/21 07:14:05;;;;;;;34.97;13.57;;;;;;;;;;4901255;28;20058;-78
2023/02/21 07:34:39;;;;;;;41.72;15.20;;;;;;;;;;4971565;27;20496;-75
2023/02/21 07:37:09;;;;;;;42.38;14.65;;;;;;;;;;4840134;28;20249;-75
2023/02/21 07:39:36;;;;;;;39.90;13.35;;;;;;;;;;4927037;28;20055;-76
2023/02/21 08:31:16;;;;;;;42.10;15.23;;;;;;;;;;5047369;27;21065;-72
2023/02/21 08:33:51;;;;;;;49.05;14.63;;;;;;;;;;4940987;28;20077;-77
2023/02/21 08:52:00;;;;;;;34.22;11.75;;;;;;;;;;5300061;22;18186798;-85
2023/02/21 08:54:34;;;;;;;37.97;12.82;;;;;;;;;;5945742;23;20031;-81
2023/02/21 08:57:00;;;;;;;34.88;13.68;;;;;;;;;;5941010;23;20037;-77
2023/02/21 08:59:32;;;;;;;45.35;15.25;;;;;;;;;;6007227;23;20023;-78
2023/02/21 09:02:11;;;;;;;39.10;13.25;;;;;;;;;;5997209;23;20045;-80
2023/02/21 09:04:38;;;;;;;40.15;13.88;;;;;;;;;;5962766;23;20031;-82
2023/02/21 09:22:51;;;;;;;36.83;11.57;;;;;;;;;;6148716;22;1894510;-76
2023/02/21 09:25:33;;;;;;;37.83;11.93;;;;;;;;;;6061395;23;20029;-75
2023/02/21 09:28:04;;;;;;;34.22;12.10;;;;;;;;;;5952307;23;20034;-75
2023/02/21 09:30:32;;;;;;;39.08;13.40;;;;;;;;;;5992354;23;20047;-73
2023/02/21 09:54:12;;;;;;;31.85;10.95;;;;;;;;;;5724567;21;13345594;-82
2023/02/21 10:12:35;;;;;;;41.05;12.65;;;;;;;;;;5078037;27;20550;-76
2023/02/21 10:15:25;;;;;;;38.00;12.93;;;;;;;;;;4943635;28;20101;-73
2023/02/21 10:23:15;;;;;;;41.28;13.23;;;;;;;;;;5050117;27;20475;-85
2023/02/21 10:25:53;;;;;;;37.03;13.57;;;;;;;;;;5034430;28;21192;-81
2023/02/21 10:28:21;;;;;;;37.45;12.63;;;;;;;;;;4959668;28;20041;-79
2023/02/21 10:30:49;;;;;;;41.17;13.63;;;;;;;;;;4929974;28;20047;-80
2023/02/21 10:38:38;;;;;;;36.40;13.45;;;;;;;;;;4972517;28;20445;-78
2023/02/21 10:41:16;;;;;;;36.92;12.38;;;;;;;;;;4950886;28;20050;-73
2023/02/21 10:43:47;;;;;;;36.33;11.68;;;;;;;;;;4899723;28;20042;-76
2023/02/21 10:46:24;;;;;;;36.85;12.35;;;;;;;;;;4933780;28;20050;-80
2023/02/21 10:48:55;;;;;;;39.47;12.68;;;;;;;;;;4931854;28;20520;-83
2023/02/21 10:56:28;;;;;;;35.55;12.55;;;;;;;;;;4911761;28;20077;-74
2023/02/21 11:02:00;;;;;;;33.83;12.45;;;;;;;;;;5015820;27;20460;-78
2023/02/21 11:04:34;;;;;;;38.40;12.93;;;;;;;;;;4924755;28;20497;-80
2023/02/21 11:07:04;;;;;;;39.90;11.93;;;;;;;;;;4929159;28;20057;-79
2023/02/21 11:09:32;;;;;;;37.33;13.38;;;;;;;;;;4882364;28;20156;-82
2023/02/21 11:12:10;;;;;;;36.35;13.02;;;;;;;;;;4955686;28;20061;-80
2023/02/21 11:14:46;;;;;;;34.47;12.73;;;;;;;;;;4926908;28;20334;-85
2023/02/21 11:17:29;;;;;;;39.85;13.05;;;;;;;;;;4931011;28;20062;-75
2023/02/21 11:33:10;;;;;;;33.33;11.20;;;;;;;;;;5071583;27;20464;-78
2023/02/21 11:41:17;;;;;;;36.38;12.00;;;;;;;;;;4895725;28;20063;-81
2023/02/21 11:43:50;;;;;;;30.20;11.05;;;;;;;;;;5006608;28;20053;-82
2023/02/21 12:03:01;;;;;;;27.15;8.85;;;;;;;;;;5026160;27;20425;-83
2023/02/21 12:05:34;;;;;;;28.60;10.65;;;;;;;;;;4984338;28;20048;-78
2023/02/21 12:28:57;;;;;;;28.85;10.82;;;;;;;;;;4979490;27;20458;-84
2023/02/21 12:31:39;;;;;;;28.95;9.52;;;;;;;;;;4906052;28;20046;-84
2023/02/21 12:34:40;;;;;;;;;;;;;;;;;;;;;
2023/02/21 12:53:06;;;;;;;22.27;8.07;;;;;;;;;;5050207;27;20545;-72
2023/02/21 12:55:35;;;;;;;22.95;8.50;;;;;;;;;;5026231;28;20195;-77
2023/02/21 12:58:01;;;;;;;;;;;;;;;;;;5003520;28;20053;-81
2023/02/21 13:03:41;;;;;;;26.33;8.32;;;;;;;;;;5034076;27;20533;-78
2023/02/21 13:06:13;;;;;;;24.08;8.80;;;;;;;;;;5007103;28;20067;-76
2023/02/21 13:08:53;;;;;;;20.23;8.07;;;;;;;;;;4977027;28;20058;-77
2023/02/21 13:11:22;;;;;;;20.00;8.35;;;;;;;;;;4893037;28;20148;-70
2023/02/21 13:13:48;;;;;;;24.00;8.02;;;;;;;;;;4982397;28;20088;-78
2023/02/21 13:16:25;;;;;;;26.38;9.15;;;;;;;;;;4944407;28;20084;-76
2023/02/21 13:37:09;;;;;;;20.88;6.20;;;;;;;;;;6168449;21;1708244;-85
2023/02/21 13:45:07;;;;;;;21.08;7.88;;;;;;;;;;4963130;27;20459;-80
2023/02/21 14:03:44;;;;;;;18.40;6.50;;;;;;;;;;5030826;27;20452;-81
2023/02/21 14:08:44;;;;;;;16.95;6.38;;;;;;;;;;4965288;28;20063;-78
2023/02/21 14:16:52;;;;;;;17.95;6.80;;;;;;;;;;5026882;27;20447;-79
2023/02/21 14:25:00;;;;;;;17.35;6.07;;;;;;;;;;4989316;27;20443;-72
2023/02/21 14:28:09;;;;;;;18.50;6.35;;;;;;;;;;4887337;28;20064;-78
2023/02/21 14:33:44;;;;;;;18.15;6.28;;;;;;;;;;5015899;27;20455;-73
2023/02/21 14:36:30;;;;;;;21.77;6.88;;;;;;;;;;4961337;28;20080;-73
2023/02/21 14:39:22;;;;;;;16.48;6.38;;;;;;;;;;4937784;28;20059;-72
2023/02/21 14:42:07;;;;;;;19.65;5.78;;;;;;;;;;4889226;28;20065;-76
2023/02/21 14:44:37;;;;;;;16.55;6.53;;;;;;;;;;4935532;28;20056;-75
2023/02/21 14:47:35;;;;;;;17.48;6.65;;;;;;;;;;4872916;29;20060;-75
2023/02/21 14:59:02;;;;;;;14.30;5.53;;;;;;;;;;4868564;29;20063;-74
2023/02/21 15:04:25;;;;;;;19.05;6.90;;;;;;;;;;4980600;27;20145;-73
2023/02/21 15:07:15;;;;;;;15.30;5.97;;;;;;;;;;4892565;28;20207;-77
2023/02/21 15:13:41;;;;;;;17.17;6.03;;;;;;;;;;4961431;27;20507;-73
2023/02/21 15:16:09;;;;;;;16.08;6.53;;;;;;;;;;4941348;28;20047;-72
2023/02/21 15:19:11;;;;;;;17.15;5.82;;;;;;;;;;4994092;28;20049;-79
2023/02/21 15:27:08;;;;;;;16.52;5.65;;;;;;;;;;5019847;27;20494;-74
2023/02/21 15:29:44;;;;;;;16.17;5.85;;;;;;;;;;4911395;28;20206;-76
2023/02/21 15:32:13;;;;;;;12.75;5.30;;;;;;;;;;4915273;28;20046;-73
2023/02/21 15:34:46;;;;;;;15.98;5.90;;;;;;;;;;4954517;28;20050;-74
2023/02/21 15:37:19;;;;;;;14.43;5.93;;;;;;;;;;4953731;28;20058;-75
2023/02/21 15:39:50;;;;;;;14.18;5.53;;;;;;;;;;4961944;28;20065;-74
2023/02/21 15:42:30;;;;;;;16.73;6.13;;;;;;;;;;4977612;28;20054;-74
2023/02/21 15:45:00;;;;;;;14.57;5.68;;;;;;;;;;4964389;28;20080;-73
2023/02/21 15:47:32;;;;;;;15.10;6.05;;;;;;;;;;4989748;28;20192;-74
2023/02/21 15:50:01;;;;;;;16.50;5.63;;;;;;;;;;4968132;28;20057;-80
2023/02/21 15:57:26;;;;;;;15.10;5.28;;;;;;;;;;4861707;29;20398;-74
2023/02/21 16:00:16;;;;;;;16.33;6.22;;;;;;;;;;4867159;28;20060;-74
2023/02/21 16:03:13;;;;;;;17.73;5.53;;;;;;;;;;4841670;28;20059;-75
2023/02/21 16:05:44;;;;;;;15.55;5.70;;;;;;;;;;4866398;28;20071;-71
2023/02/21 16:08:14;;;;;;;17.50;6.32;;;;;;;;;;4898329;29;20071;-75
2023/02/21 16:13:08;;;;;;;15.02;5.25;;;;;;;;;;4836585;29;20052;-73
2023/02/21 16:28:23;;;;;;;14.05;5.32;;;;;;;;;;4839492;29;20083;-81
2023/02/21 16:30:50;;;;;;;16.77;5.22;;;;;;;;;;4866519;29;20112;-80
2023/02/21 16:54:13;;;;;;;12.98;4.93;;;;;;;;;;6142546;22;2713752;-73
2023/02/21 16:56:41;;;;;;;13.48;4.97;;;;;;;;;;6138977;23;20092;-81
2023/02/21 16:59:09;;;;;;;13.15;5.07;;;;;;;;;;6070499;23;20029;-75
2023/02/21 17:01:36;;;;;;;11.90;4.28;;;;;;;;;;6055994;23;20024;-74
2023/02/21 17:04:04;;;;;;;12.60;5.15;;;;;;;;;;6105528;23;20058;-76
2023/02/21 17:06:31;;;;;;;13.88;4.50;;;;;;;;;;6072736;23;20022;-78
2023/02/21 17:08:58;;;;;;;12.88;5.13;;;;;;;;;;6039519;23;20074;-77
2023/02/21 17:11:47;;;;;;;14.48;4.85;;;;;;;;;;6031435;23;20054;-71
2023/02/21 17:14:15;;;;;;;;;;;;;;;;;;6011965;23;20018;-76
2023/02/21 17:16:44;;;;;;;12.75;4.82;;;;;;;;;;6022034;23;19921;-74
2023/02/21 17:19:19;;;;;;;13.27;4.88;;;;;;;;;;5983709;23;20027;-73
2023/02/21 17:53:02;;;;;;;12.65;5.13;;;;;;;;;;6301354;22;2197034;-77
2023/02/21 17:55:31;;;;;;;11.25;4.45;;;;;;;;;;6174307;22;20025;-74
2023/02/21 17:57:57;;;;;;;13.27;4.85;;;;;;;;;;6190183;23;20031;-77
2023/02/21 18:00:25;;;;;;;12.77;5.15;;;;;;;;;;6194902;23;20025;-75
2023/02/21 18:02:52;;;;;;;13.63;5.15;;;;;;;;;;6110494;23;20024;-75
2023/02/21 18:05:21;;;;;;;10.85;4.65;;;;;;;;;;6120952;23;20112;-73
2023/02/21 18:07:49;;;;;;;20.08;5.50;;;;;;;;;;6119625;23;20079;-72
2023/02/21 18:10:17;;;;;;;15.00;5.75;;;;;;;;;;6167312;23;20033;-72
2023/02/21 18:12:45;;;;;;;13.90;5.15;;;;;;;;;;6114518;22;20020;-71
2023/02/21 18:15:12;;;;;;;14.18;5.13;;;;;;;;;;6175775;23;20082;-75
2023/02/21 18:17:39;;;;;;;15.68;5.30;;;;;;;;;;6123130;23;20036;-76
2023/02/21 18:20:13;;;;;;;15.80;5.35;;;;;;;;;;6091635;23;20125;-72
2023/02/21 18:22:40;;;;;;;17.52;5.78;;;;;;;;;;6046871;23;20029;-73
2023/02/21 18:25:14;;;;;;;16.63;5.43;;;;;;;;;;6111415;23;20032;-73
2023/02/21 18:27:42;;;;;;;16.75;5.78;;;;;;;;;;6118959;23;20245;-76
2023/02/21 18:30:10;;;;;;;15.50;5.68;;;;;;;;;;6104109;23;20052;-75
2023/02/21 18:40:36;;;;;;;16.55;5.10;;;;;;;;;;5994950;23;20026;-74
2023/02/21 18:43:06;;;;;;;16.25;5.88;;;;;;;;;;6012715;23;20026;-76
2023/02/21 18:45:33;;;;;;;16.30;5.68;;;;;;;;;;5990106;23;20030;-72
2023/02/21 18:48:00;;;;;;;17.98;6.03;;;;;;;;;;5995603;23;20026;-74
2023/02/21 18:50:28;;;;;;;18.10;5.80;;;;;;;;;;6009816;23;20095;-71
2023/02/21 18:52:55;;;;;;;15.80;5.57;;;;;;;;;;6026341;23;20061;-75
2023/02/21 18:55:25;;;;;;;18.17;5.90;;;;;;;;;;6035786;23;20032;-77
2023/02/21 18:57:52;;;;;;;17.42;5.28;;;;;;;;;;6078361;23;20057;-78
2023/02/21 19:00:20;;;;;;;14.20;5.32;;;;;;;;;;6033319;23;20030;-69
2023/02/21 19:05:36;;;;;;;13.32;5.18;;;;;;;;;;5054138;27;20550;-74
2023/02/21 19:08:03;;;;;;;17.52;6.07;;;;;;;;;;4989733;28;20135;-73
2023/02/21 19:10:30;;;;;;;17.65;5.90;;;;;;;;;;5023929;28;20123;-73
2023/02/21 19:13:00;;;;;;;20.42;7.00;;;;;;;;;;5011320;28;20063;-74
2023/02/21 19:15:27;;;;;;;16.30;5.93;;;;;;;;;;4995376;28;20053;-72
2023/02/21 19:17:54;;;;;;;19.08;5.97;;;;;;;;;;4962775;28;20050;-72
2023/02/21 19:25:29;;;;;;;17.25;6.15;;;;;;;;;;4939728;27;1602897;-72
2023/02/21 19:28:00;;;;;;;17.63;5.93;;;;;;;;;;5002556;28;20127;-73
2023/02/21 19:30:28;;;;;;;15.45;5.78;;;;;;;;;;5049024;28;20067;-73
2023/02/21 19:32:57;;;;;;;19.00;6.28;;;;;;;;;;5053922;28;20157;-74
2023/02/21 19:35:24;;;;;;;17.13;5.80;;;;;;;;;;5054077;28;20048;-72
2023/02/21 19:37:51;;;;;;;23.45;7.32;;;;;;;;;;5024068;28;20051;-72
2023/02/21 19:40:17;;;;;;;19.20;6.20;;;;;;;;;;5025910;28;20120;-71
2023/02/21 19:42:47;;;;;;;16.08;6.03;;;;;;;;;;5053389;28;20056;-72
2023/02/21 19:45:14;;;;;;;16.33;6.22;;;;;;;;;;5023613;28;20124;-74
2023/02/21 19:47:41;;;;;;;17.25;6.35;;;;;;;;;;5030871;28;20056;-75
2023/02/21 19:50:11;;;;;;;19.15;6.45;;;;;;;;;;5044330;28;20041;-71
2023/02/21 19:52:38;;;;;;;18.50;5.60;;;;;;;;;;5021358;28;20164;-72
2023/02/21 19:55:06;;;;;;;19.42;6.25;;;;;;;;;;5039400;28;20076;-74
2023/02/21 19:57:35;;;;;;;14.60;5.47;;;;;;;;;;5039955;28;20045;-75
2023/02/21 20:00:07;;;;;;;16.17;5.50;;;;;;;;;;5013077;28;20061;-72
2023/02/21 20:02:36;;;;;;;20.00;5.55;;;;;;;;;;5051901;28;20063;-72
2023/02/21 20:05:09;;;;;;;17.00;6.00;;;;;;;;;;5016850;28;20104;-74
2023/02/21 20:07:45;;;;;;;19.17;6.13;;;;;;;;;;5036442;28;20053;-73
2023/02/21 20:10:12;;;;;;;14.95;6.00;;;;;;;;;;5062336;28;20059;-71
2023/02/21 20:12:39;;;;;;;19.42;6.97;;;;;;;;;;5001000;28;20056;-70
2023/02/21 20:15:10;;;;;;;19.85;7.15;;;;;;;;;;5063324;28;20056;-73
2023/02/21 20:17:38;;;;;;;18.48;6.60;;;;;;;;;;5038158;28;20085;-73
2023/02/21 20:20:08;;;;;;;18.77;6.82;;;;;;;;;;5015537;28;20080;-69
2023/02/21 20:22:36;;;;;;;16.38;6.55;;;;;;;;;;5022999;28;20049;-72
2023/02/21 20:25:02;;;;;;;18.65;6.43;;;;;;;;;;5048889;28;20056;-70
2023/02/21 20:27:29;;;;;;;20.52;6.40;;;;;;;;;;5057745;28;20084;-74
2023/02/21 20:29:56;;;;;;;18.38;6.03;;;;;;;;;;5044130;28;20094;-70
2023/02/21 20:32:24;;;;;;;19.55;7.13;;;;;;;;;;5040632;28;20082;-71
2023/02/21 20:34:53;;;;;;;24.47;6.87;;;;;;;;;;5021561;28;20048;-71
2023/02/21 20:37:20;;;;;;;22.80;8.23;;;;;;;;;;5008606;28;20322;-72
2023/02/21 20:39:48;;;;;;;17.63;6.07;;;;;;;;;;5043326;28;20114;-74
2023/02/21 20:42:15;;;;;;;18.33;6.83;;;;;;;;;;5017714;28;20167;-74
2023/02/21 20:44:43;;;;;;;24.55;7.57;;;;;;;;;;5014632;28;20091;-74
2023/02/21 20:47:10;;;;;;;23.60;7.63;;;;;;;;;;5026919;28;20056;-72
2023/02/21 20:49:38;;;;;;;22.00;8.18;;;;;;;;;;5016465;28;20056;-70
2023/02/21 20:52:04;;;;;;;22.85;7.35;;;;;;;;;;5006056;28;20057;-72
2023/02/21 20:54:31;;;;;;;20.05;6.43;;;;;;;;;;4954759;28;20080;-72
2023/02/21 20:57:02;;;;;;;22.17;8.05;;;;;;;;;;5016829;28;20044;-72
2023/02/21 20:59:40;;;;;;;19.88;6.90;;;;;;;;;;4962949;28;20053;-71
2023/02/21 21:02:30;;;;;;;18.73;6.78;;;;;;;;;;4905422;28;20059;-71
2023/02/21 21:07:30;;;;;;;20.55;7.43;;;;;;;;;;4822708;28;20092;-72
2023/02/21 21:09:57;;;;;;;23.70;7.95;;;;;;;;;;4957528;28;20352;-72
2023/02/21 21:12:26;;;;;;;20.17;7.03;;;;;;;;;;5007083;28;20181;-71
2023/02/21 21:14:53;;;;;;;20.98;7.50;;;;;;;;;;4960368;28;20274;-74
2023/02/21 21:17:20;;;;;;;18.75;7.13;;;;;;;;;;4932843;28;20059;-73
2023/02/21 21:19:47;;;;;;;22.90;7.82;;;;;;;;;;4947750;28;20053;-75
2023/02/21 21:22:15;;;;;;;19.58;7.28;;;;;;;;;;5047145;23;20045;-74
2023/02/21 21:41:12;;;;;;;23.70;7.10;;;;;;;;;;5944931;22;3952231;-79
2023/02/21 21:46:32;;;;;;;22.88;7.80;;;;;;;;;;5030401;27;20442;-72
2023/02/21 21:49:01;;;;;;;20.88;7.40;;;;;;;;;;4918678;28;20078;-77
2023/02/21 21:56:16;;;;;;;19.45;7.53;;;;;;;;;;4975638;27;20456;-75
2023/02/21 22:04:25;;;;;;;23.65;7.95;;;;;;;;;;4986008;27;20389;-77
2023/02/21 22:07:00;;;;;;;23.58;8.75;;;;;;;;;;4883373;28;20064;-74
2023/02/21 22:14:45;;;;;;;21.60;8.40;;;;;;;;;;4902516;27;20392;-78
2023/02/21 22:17:14;;;;;;;20.38;8.43;;;;;;;;;;4876620;28;20084;-73
2023/02/21 22:22:49;;;;;;;21.30;8.25;;;;;;;;;;4887428;29;20063;-78
2023/02/21 22:28:11;;;;;;;21.05;9.35;;;;;;;;;;4962753;27;1402104;-72
2023/02/21 22:30:45;;;;;;;19.77;7.88;;;;;;;;;;4944515;28;20050;-75
2023/02/21 22:38:18;;;;;;;22.92;9.13;;;;;;;;;;4897517;28;20053;-74
2023/02/21 22:48:31;;;;;;;18.65;8.40;;;;;;;;;;4882601;28;20158;-77
2023/02/21 22:50:58;;;;;;;19.33;7.57;;;;;;;;;;4943903;28;20051;-73
2023/02/21 23:13:13;;;;;;;20.08;8.57;;;;;;;;;;5094073;27;20522;-75
2023/02/21 23:15:40;;;;;;;20.15;8.18;;;;;;;;;;5002606;28;20055;-74
2023/02/21 23:18:27;;;;;;;;;;;;;;;;;;;;;
2023/02/21 23:36:26;;;;;;;16.17;6.93;;;;;;;;;;5026813;27;20447;-71
2023/02/21 23:38:59;;;;;;;22.73;8.27;;;;;;;;;;4953092;28;20049;-73
2023/02/21 23:58:00;;;;;;;15.90;6.53;;;;;;;;;;6131883;21;1401591;-75
